sensor_id;sensor_type;location;lat;lon;timestamp;temperature;humidity
5962;DHT22;3007;50.770;0.250;2022-10-16T00:01:16;14.50;99.90
5962;DHT22;3007;50.770;0.250;2022-10-16T00:03:45;14.50;99.90
5962;DHT22;3007;50.770;0.250;2022-10-16T00:06:12;14.50;99.90
5962;DHT22;3007;50.770;0.250;2022-10-16T00:08:40;14.40;99.90
5962;DHT22;3007;50.770;0.250;2022-10-16T00:11:11;14.30;99.90
5962;DHT22;3007;50.770;0.250;2022-10-16T00:13:40;14.20;99.90
5962;DHT22;3007;50.770;0.250;2022-10-16T00:16:07;14.10;99.90
5962;DHT22;3007;50.770;0.250;2022-10-16T00:18:35;14.10;99.90
5962;DHT22;3007;50.770;0.250;2022-10-16T00:21:03;14.10;99.90
5962;DHT22;3007;50.770;0.250;2022-10-16T00:23:31;14.10;99.90
5962;DHT22;3007;50.770;0.250;2022-10-16T00:26:00;14.10;99.90
5962;DHT22;3007;50.770;0.250;2022-10-16T00:28:29;14.10;99.90
5962;DHT22;3007;50.770;0.250;2022-10-16T00:30:56;14.20;99.90
5962;DHT22;3007;50.770;0.250;2022-10-16T00:33:23;14.20;99.90
5962;DHT22;3007;50.770;0.250;2022-10-16T00:35:50;14.20;99.90
5962;DHT22;3007;50.770;0.250;2022-10-16T00:38:17;14.20;99.90
5962;DHT22;3007;50.770;0.250;2022-10-16T00:40:44;14.30;99.90
5962;DHT22;3007;50.770;0.250;2022-10-16T00:43:34;14.30;99.90
5962;DHT22;3007;50.770;0.250;2022-10-16T00:46:02;14.30;99.90
5962;DHT22;3007;50.770;0.250;2022-10-16T00:48:30;14.30;99.90
5962;DHT22;3007;50.770;0.250;2022-10-16T00:50:58;14.30;99.90
5962;DHT22;3007;50.770;0.250;2022-10-16T00:53:25;14.30;99.90
5962;DHT22;3007;50.770;0.250;2022-10-16T00:55:53;14.40;99.90
5962;DHT22;3007;50.770;0.250;2022-10-16T00:58:21;14.40;99.90
5962;DHT22;3007;50.770;0.250;2022-10-16T01:00:49;14.50;99.90
5962;DHT22;3007;50.770;0.250;2022-10-16T01:03:25;14.60;99.90
5962;DHT22;3007;50.770;0.250;2022-10-16T01:05:59;14.60;99.90
5962;DHT22;3007;50.770;0.250;2022-10-16T01:08:38;14.60;99.90
5962;DHT22;3007;50.770;0.250;2022-10-16T01:11:12;14.50;99.90
5962;DHT22;3007;50.770;0.250;2022-10-16T01:13:47;14.50;99.90
5962;DHT22;3007;50.770;0.250;2022-10-16T01:16:22;14.40;99.90
5962;DHT22;3007;50.770;0.250;2022-10-16T01:18:56;14.30;99.90
5962;DHT22;3007;50.770;0.250;2022-10-16T01:21:27;14.20;99.90
5962;DHT22;3007;50.770;0.250;2022-10-16T01:24:02;14.10;99.90
5962;DHT22;3007;50.770;0.250;2022-10-16T01:26:37;14.10;99.90
5962;DHT22;3007;50.770;0.250;2022-10-16T01:29:16;14.10;99.90
5962;DHT22;3007;50.770;0.250;2022-10-16T01:31:48;14.00;99.90
5962;DHT22;3007;50.770;0.250;2022-10-16T01:34:20;14.00;99.90
5962;DHT22;3007;50.770;0.250;2022-10-16T01:36:52;14.00;99.90
5962;DHT22;3007;50.770;0.250;2022-10-16T01:39:22;14.00;99.90
5962;DHT22;3007;50.770;0.250;2022-10-16T01:41:57;14.00;99.90
5962;DHT22;3007;50.770;0.250;2022-10-16T01:44:30;14.00;99.90
5962;DHT22;3007;50.770;0.250;2022-10-16T01:46:58;13.90;99.90
5962;DHT22;3007;50.770;0.250;2022-10-16T01:49:31;13.90;99.90
5962;DHT22;3007;50.770;0.250;2022-10-16T01:52:02;13.80;99.90
5962;DHT22;3007;50.770;0.250;2022-10-16T01:54:34;13.80;99.90
5962;DHT22;3007;50.770;0.250;2022-10-16T01:57:03;13.70;99.90
5962;DHT22;3007;50.770;0.250;2022-10-16T01:59:34;13.70;99.90
5962;DHT22;3007;50.770;0.250;2022-10-16T02:02:07;13.60;99.90
5962;DHT22;3007;50.770;0.250;2022-10-16T02:04:37;13.50;99.90
5962;DHT22;3007;50.770;0.250;2022-10-16T02:07:08;13.40;99.90
5962;DHT22;3007;50.770;0.250;2022-10-16T02:09:36;13.40;99.90
5962;DHT22;3007;50.770;0.250;2022-10-16T02:12:08;13.30;99.90
5962;DHT22;3007;50.770;0.250;2022-10-16T02:14:39;13.30;99.90
5962;DHT22;3007;50.770;0.250;2022-10-16T02:17:10;13.30;99.90
5962;DHT22;3007;50.770;0.250;2022-10-16T02:19:38;13.20;99.90
5962;DHT22;3007;50.770;0.250;2022-10-16T02:22:06;13.20;99.90
5962;DHT22;3007;50.770;0.250;2022-10-16T02:24:35;13.20;99.90
5962;DHT22;3007;50.770;0.250;2022-10-16T02:27:09;13.20;99.90
5962;DHT22;3007;50.770;0.250;2022-10-16T02:29:41;13.10;99.90
5962;DHT22;3007;50.770;0.250;2022-10-16T02:32:12;13.10;99.90
5962;DHT22;3007;50.770;0.250;2022-10-16T02:34:40;13.10;99.90
5962;DHT22;3007;50.770;0.250;2022-10-16T02:37:08;13.10;99.90
5962;DHT22;3007;50.770;0.250;2022-10-16T02:39:35;13.10;99.90
5962;DHT22;3007;50.770;0.250;2022-10-16T02:42:03;13.10;99.90
5962;DHT22;3007;50.770;0.250;2022-10-16T02:44:30;13.10;99.90
5962;DHT22;3007;50.770;0.250;2022-10-16T02:46:58;13.10;99.90
5962;DHT22;3007;50.770;0.250;2022-10-16T02:49:25;13.10;99.90
5962;DHT22;3007;50.770;0.250;2022-10-16T02:51:52;13.10;99.90
5962;DHT22;3007;50.770;0.250;2022-10-16T02:54:19;13.10;99.90
5962;DHT22;3007;50.770;0.250;2022-10-16T02:56:46;13.10;99.90
5962;DHT22;3007;50.770;0.250;2022-10-16T02:59:12;13.10;99.90
5962;DHT22;3007;50.770;0.250;2022-10-16T03:01:39;13.10;99.90
5962;DHT22;3007;50.770;0.250;2022-10-16T03:04:07;13.20;99.90
5962;DHT22;3007;50.770;0.250;2022-10-16T03:06:35;13.20;99.90
5962;DHT22;3007;50.770;0.250;2022-10-16T03:09:02;13.20;99.90
5962;DHT22;3007;50.770;0.250;2022-10-16T03:11:29;13.30;99.90
5962;DHT22;3007;50.770;0.250;2022-10-16T03:13:55;13.30;99.90
5962;DHT22;3007;50.770;0.250;2022-10-16T03:16:22;13.40;99.90
5962;DHT22;3007;50.770;0.250;2022-10-16T03:18:50;13.40;99.90
5962;DHT22;3007;50.770;0.250;2022-10-16T03:21:18;13.40;99.90
5962;DHT22;3007;50.770;0.250;2022-10-16T03:23:45;13.50;99.90
5962;DHT22;3007;50.770;0.250;2022-10-16T03:26:12;13.60;99.90
5962;DHT22;3007;50.770;0.250;2022-10-16T03:28:39;13.60;99.90
5962;DHT22;3007;50.770;0.250;2022-10-16T03:31:05;13.60;99.90
5962;DHT22;3007;50.770;0.250;2022-10-16T03:33:33;13.50;99.90
5962;DHT22;3007;50.770;0.250;2022-10-16T03:36:00;13.30;99.90
5962;DHT22;3007;50.770;0.250;2022-10-16T03:38:28;13.20;99.90
5962;DHT22;3007;50.770;0.250;2022-10-16T03:40:55;13.10;99.90
5962;DHT22;3007;50.770;0.250;2022-10-16T03:43:22;13.00;99.90
5962;DHT22;3007;50.770;0.250;2022-10-16T03:45:50;12.90;99.90
5962;DHT22;3007;50.770;0.250;2022-10-16T03:48:17;12.80;99.90
5962;DHT22;3007;50.770;0.250;2022-10-16T03:50:44;12.80;99.90
5962;DHT22;3007;50.770;0.250;2022-10-16T03:53:11;12.80;99.90
5962;DHT22;3007;50.770;0.250;2022-10-16T03:55:41;12.90;99.90
5962;DHT22;3007;50.770;0.250;2022-10-16T03:58:08;12.90;99.90
5962;DHT22;3007;50.770;0.250;2022-10-16T04:00:35;13.00;99.90
5962;DHT22;3007;50.770;0.250;2022-10-16T04:03:02;13.10;99.90
5962;DHT22;3007;50.770;0.250;2022-10-16T04:05:28;13.20;99.90
5962;DHT22;3007;50.770;0.250;2022-10-16T04:07:55;13.10;99.90
5962;DHT22;3007;50.770;0.250;2022-10-16T04:10:22;13.00;99.90
5962;DHT22;3007;50.770;0.250;2022-10-16T04:12:50;13.00;99.90
5962;DHT22;3007;50.770;0.250;2022-10-16T04:15:20;12.90;99.90
5962;DHT22;3007;50.770;0.250;2022-10-16T04:17:46;12.90;99.90
5962;DHT22;3007;50.770;0.250;2022-10-16T04:20:13;12.90;99.90
5962;DHT22;3007;50.770;0.250;2022-10-16T04:22:40;12.90;99.90
5962;DHT22;3007;50.770;0.250;2022-10-16T04:25:08;12.90;99.90
5962;DHT22;3007;50.770;0.250;2022-10-16T04:27:35;13.00;99.90
5962;DHT22;3007;50.770;0.250;2022-10-16T04:30:03;13.00;99.90
5962;DHT22;3007;50.770;0.250;2022-10-16T04:32:30;13.00;99.90
5962;DHT22;3007;50.770;0.250;2022-10-16T04:34:57;12.90;99.90
5962;DHT22;3007;50.770;0.250;2022-10-16T04:37:24;12.90;99.90
5962;DHT22;3007;50.770;0.250;2022-10-16T04:39:53;12.90;99.90
5962;DHT22;3007;50.770;0.250;2022-10-16T04:42:21;12.90;99.90
5962;DHT22;3007;50.770;0.250;2022-10-16T04:44:48;12.80;99.90
5962;DHT22;3007;50.770;0.250;2022-10-16T04:47:16;12.80;99.90
5962;DHT22;3007;50.770;0.250;2022-10-16T04:49:43;12.70;99.90
5962;DHT22;3007;50.770;0.250;2022-10-16T04:52:09;12.70;99.90
5962;DHT22;3007;50.770;0.250;2022-10-16T04:54:36;12.70;99.90
5962;DHT22;3007;50.770;0.250;2022-10-16T04:57:03;12.70;99.90
5962;DHT22;3007;50.770;0.250;2022-10-16T04:59:30;12.60;99.90
5962;DHT22;3007;50.770;0.250;2022-10-16T05:01:57;12.60;99.90
5962;DHT22;3007;50.770;0.250;2022-10-16T05:04:25;12.70;99.90
5962;DHT22;3007;50.770;0.250;2022-10-16T05:06:52;12.60;99.90
5962;DHT22;3007;50.770;0.250;2022-10-16T05:09:19;12.60;99.90
5962;DHT22;3007;50.770;0.250;2022-10-16T05:11:46;12.60;99.90
5962;DHT22;3007;50.770;0.250;2022-10-16T05:14:13;12.60;99.90
5962;DHT22;3007;50.770;0.250;2022-10-16T05:16:39;12.50;99.90
5962;DHT22;3007;50.770;0.250;2022-10-16T05:19:06;12.50;99.90
5962;DHT22;3007;50.770;0.250;2022-10-16T05:21:34;12.40;99.90
5962;DHT22;3007;50.770;0.250;2022-10-16T05:24:01;12.40;99.90
5962;DHT22;3007;50.770;0.250;2022-10-16T05:26:28;12.50;99.90
5962;DHT22;3007;50.770;0.250;2022-10-16T05:28:55;12.50;99.90
5962;DHT22;3007;50.770;0.250;2022-10-16T05:31:22;12.50;99.90
5962;DHT22;3007;50.770;0.250;2022-10-16T05:33:49;12.50;99.90
5962;DHT22;3007;50.770;0.250;2022-10-16T05:36:16;12.40;99.90
5962;DHT22;3007;50.770;0.250;2022-10-16T05:38:45;12.40;99.90
5962;DHT22;3007;50.770;0.250;2022-10-16T05:41:12;12.40;99.90
5962;DHT22;3007;50.770;0.250;2022-10-16T05:43:38;12.40;99.90
5962;DHT22;3007;50.770;0.250;2022-10-16T05:46:06;12.40;99.90
5962;DHT22;3007;50.770;0.250;2022-10-16T05:48:33;12.40;99.90
5962;DHT22;3007;50.770;0.250;2022-10-16T05:51:02;12.40;99.90
5962;DHT22;3007;50.770;0.250;2022-10-16T05:53:30;12.40;99.90
5962;DHT22;3007;50.770;0.250;2022-10-16T05:55:59;12.40;99.90
5962;DHT22;3007;50.770;0.250;2022-10-16T05:58:29;12.30;99.90
5962;DHT22;3007;50.770;0.250;2022-10-16T06:00:57;12.20;99.90
5962;DHT22;3007;50.770;0.250;2022-10-16T06:03:25;12.20;99.90
5962;DHT22;3007;50.770;0.250;2022-10-16T06:05:52;12.20;99.90
5962;DHT22;3007;50.770;0.250;2022-10-16T06:08:21;12.10;99.90
5962;DHT22;3007;50.770;0.250;2022-10-16T06:10:49;12.10;99.90
5962;DHT22;3007;50.770;0.250;2022-10-16T06:13:17;12.00;99.90
5962;DHT22;3007;50.770;0.250;2022-10-16T06:15:44;11.90;99.90
5962;DHT22;3007;50.770;0.250;2022-10-16T06:18:11;11.90;99.90
5962;DHT22;3007;50.770;0.250;2022-10-16T06:20:38;11.80;99.90
5962;DHT22;3007;50.770;0.250;2022-10-16T06:23:04;11.80;99.90
5962;DHT22;3007;50.770;0.250;2022-10-16T06:25:31;11.70;99.90
5962;DHT22;3007;50.770;0.250;2022-10-16T06:27:58;11.70;99.90
5962;DHT22;3007;50.770;0.250;2022-10-16T06:30:26;11.70;99.90
5962;DHT22;3007;50.770;0.250;2022-10-16T06:32:53;11.60;99.90
5962;DHT22;3007;50.770;0.250;2022-10-16T06:35:20;11.60;99.90
5962;DHT22;3007;50.770;0.250;2022-10-16T06:37:47;11.60;99.90
5962;DHT22;3007;50.770;0.250;2022-10-16T06:40:14;11.70;99.90
5962;DHT22;3007;50.770;0.250;2022-10-16T06:42:41;11.80;99.90
5962;DHT22;3007;50.770;0.250;2022-10-16T06:45:08;12.00;99.90
5962;DHT22;3007;50.770;0.250;2022-10-16T06:47:37;12.10;99.90
5962;DHT22;3007;50.770;0.250;2022-10-16T06:50:05;12.30;99.90
5962;DHT22;3007;50.770;0.250;2022-10-16T06:52:33;12.50;99.90
5962;DHT22;3007;50.770;0.250;2022-10-16T06:55:00;12.60;99.90
5962;DHT22;3007;50.770;0.250;2022-10-16T06:57:27;12.60;99.90
5962;DHT22;3007;50.770;0.250;2022-10-16T06:59:53;12.60;99.90
5962;DHT22;3007;50.770;0.250;2022-10-16T07:02:20;12.50;99.90
5962;DHT22;3007;50.770;0.250;2022-10-16T07:04:49;12.60;99.90
5962;DHT22;3007;50.770;0.250;2022-10-16T07:07:16;12.50;99.90
5962;DHT22;3007;50.770;0.250;2022-10-16T07:09:42;12.50;99.90
5962;DHT22;3007;50.770;0.250;2022-10-16T07:12:09;12.60;99.90
5962;DHT22;3007;50.770;0.250;2022-10-16T07:14:36;12.50;99.90
5962;DHT22;3007;50.770;0.250;2022-10-16T07:17:03;12.50;99.90
5962;DHT22;3007;50.770;0.250;2022-10-16T07:19:30;12.50;99.90
5962;DHT22;3007;50.770;0.250;2022-10-16T07:21:58;12.50;99.90
5962;DHT22;3007;50.770;0.250;2022-10-16T07:24:25;12.50;99.90
5962;DHT22;3007;50.770;0.250;2022-10-16T07:26:52;12.60;99.90
5962;DHT22;3007;50.770;0.250;2022-10-16T07:29:20;12.60;99.90
5962;DHT22;3007;50.770;0.250;2022-10-16T07:31:47;12.60;99.90
5962;DHT22;3007;50.770;0.250;2022-10-16T07:34:16;12.60;99.90
5962;DHT22;3007;50.770;0.250;2022-10-16T07:36:43;12.60;99.90
5962;DHT22;3007;50.770;0.250;2022-10-16T07:39:12;12.70;99.90
5962;DHT22;3007;50.770;0.250;2022-10-16T07:41:39;12.70;99.90
5962;DHT22;3007;50.770;0.250;2022-10-16T07:44:06;12.70;99.90
5962;DHT22;3007;50.770;0.250;2022-10-16T07:46:33;12.60;99.90
5962;DHT22;3007;50.770;0.250;2022-10-16T07:49:01;12.60;99.90
5962;DHT22;3007;50.770;0.250;2022-10-16T07:51:28;12.60;99.90
5962;DHT22;3007;50.770;0.250;2022-10-16T07:53:55;12.60;99.90
5962;DHT22;3007;50.770;0.250;2022-10-16T07:56:23;12.60;99.90
5962;DHT22;3007;50.770;0.250;2022-10-16T07:58:51;12.60;99.90
5962;DHT22;3007;50.770;0.250;2022-10-16T08:01:18;12.70;99.90
5962;DHT22;3007;50.770;0.250;2022-10-16T08:03:46;12.70;99.90
5962;DHT22;3007;50.770;0.250;2022-10-16T08:06:14;12.80;99.90
5962;DHT22;3007;50.770;0.250;2022-10-16T08:08:41;12.90;99.90
5962;DHT22;3007;50.770;0.250;2022-10-16T08:11:08;12.90;99.90
5962;DHT22;3007;50.770;0.250;2022-10-16T08:13:36;12.90;99.90
5962;DHT22;3007;50.770;0.250;2022-10-16T08:16:04;12.90;99.90
5962;DHT22;3007;50.770;0.250;2022-10-16T08:18:33;12.90;99.90
5962;DHT22;3007;50.770;0.250;2022-10-16T08:21:01;12.90;99.90
5962;DHT22;3007;50.770;0.250;2022-10-16T08:23:28;12.90;99.90
5962;DHT22;3007;50.770;0.250;2022-10-16T08:25:56;13.00;99.90
5962;DHT22;3007;50.770;0.250;2022-10-16T08:28:28;13.10;99.90
5962;DHT22;3007;50.770;0.250;2022-10-16T08:30:56;13.20;99.90
5962;DHT22;3007;50.770;0.250;2022-10-16T08:33:23;13.20;99.90
5962;DHT22;3007;50.770;0.250;2022-10-16T08:35:53;13.40;99.90
5962;DHT22;3007;50.770;0.250;2022-10-16T08:38:20;13.50;99.90
5962;DHT22;3007;50.770;0.250;2022-10-16T08:40:47;13.70;99.90
5962;DHT22;3007;50.770;0.250;2022-10-16T08:43:27;13.90;99.90
5962;DHT22;3007;50.770;0.250;2022-10-16T08:46:16;14.00;99.90
5962;DHT22;3007;50.770;0.250;2022-10-16T08:48:47;14.20;99.90
5962;DHT22;3007;50.770;0.250;2022-10-16T08:51:20;14.40;99.90
5962;DHT22;3007;50.770;0.250;2022-10-16T08:53:52;14.50;99.90
5962;DHT22;3007;50.770;0.250;2022-10-16T08:56:19;14.70;99.90
5962;DHT22;3007;50.770;0.250;2022-10-16T08:58:47;14.80;99.90
5962;DHT22;3007;50.770;0.250;2022-10-16T09:01:17;14.90;99.90
5962;DHT22;3007;50.770;0.250;2022-10-16T09:04:05;15.10;99.90
5962;DHT22;3007;50.770;0.250;2022-10-16T09:06:44;15.10;99.90
5962;DHT22;3007;50.770;0.250;2022-10-16T09:09:26;15.30;99.90
5962;DHT22;3007;50.770;0.250;2022-10-16T09:11:59;15.40;99.90
5962;DHT22;3007;50.770;0.250;2022-10-16T09:14:45;15.50;99.90
5962;DHT22;3007;50.770;0.250;2022-10-16T09:17:37;15.70;99.90
5962;DHT22;3007;50.770;0.250;2022-10-16T09:20:18;15.90;99.90
5962;DHT22;3007;50.770;0.250;2022-10-16T09:22:46;16.00;99.90
5962;DHT22;3007;50.770;0.250;2022-10-16T09:25:14;16.10;99.90
5962;DHT22;3007;50.770;0.250;2022-10-16T09:27:42;16.20;99.90
5962;DHT22;3007;50.770;0.250;2022-10-16T09:30:13;16.20;99.90
5962;DHT22;3007;50.770;0.250;2022-10-16T09:32:42;16.30;99.90
5962;DHT22;3007;50.770;0.250;2022-10-16T09:35:14;16.40;99.90
5962;DHT22;3007;50.770;0.250;2022-10-16T09:37:43;16.50;99.90
5962;DHT22;3007;50.770;0.250;2022-10-16T09:40:24;16.70;99.90
5962;DHT22;3007;50.770;0.250;2022-10-16T09:42:56;16.80;99.90
5962;DHT22;3007;50.770;0.250;2022-10-16T09:45:24;16.90;99.90
5962;DHT22;3007;50.770;0.250;2022-10-16T09:47:53;17.00;99.90
5962;DHT22;3007;50.770;0.250;2022-10-16T09:50:23;17.00;99.90
5962;DHT22;3007;50.770;0.250;2022-10-16T09:53:03;17.00;99.90
5962;DHT22;3007;50.770;0.250;2022-10-16T09:55:30;17.00;99.90
5962;DHT22;3007;50.770;0.250;2022-10-16T09:57:57;17.00;99.90
5962;DHT22;3007;50.770;0.250;2022-10-16T10:00:25;16.90;99.90
5962;DHT22;3007;50.770;0.250;2022-10-16T10:02:54;16.90;99.90
5962;DHT22;3007;50.770;0.250;2022-10-16T10:05:22;16.70;99.90
5962;DHT22;3007;50.770;0.250;2022-10-16T10:07:55;16.60;99.90
5962;DHT22;3007;50.770;0.250;2022-10-16T10:10:25;16.50;99.90
5962;DHT22;3007;50.770;0.250;2022-10-16T10:12:52;16.40;99.90
5962;DHT22;3007;50.770;0.250;2022-10-16T10:15:19;16.40;99.90
5962;DHT22;3007;50.770;0.250;2022-10-16T10:17:49;16.30;99.90
5962;DHT22;3007;50.770;0.250;2022-10-16T10:20:25;16.30;99.90
5962;DHT22;3007;50.770;0.250;2022-10-16T10:22:53;16.20;99.90
5962;DHT22;3007;50.770;0.250;2022-10-16T10:25:38;16.20;99.90
5962;DHT22;3007;50.770;0.250;2022-10-16T10:28:18;16.20;99.90
5962;DHT22;3007;50.770;0.250;2022-10-16T10:30:56;16.20;99.90
5962;DHT22;3007;50.770;0.250;2022-10-16T10:33:29;16.30;99.90
5962;DHT22;3007;50.770;0.250;2022-10-16T10:36:07;16.40;99.90
5962;DHT22;3007;50.770;0.250;2022-10-16T10:38:42;16.40;99.90
5962;DHT22;3007;50.770;0.250;2022-10-16T10:41:27;16.30;99.90
5962;DHT22;3007;50.770;0.250;2022-10-16T10:44:05;16.30;99.90
5962;DHT22;3007;50.770;0.250;2022-10-16T10:46:36;16.30;99.90
5962;DHT22;3007;50.770;0.250;2022-10-16T10:49:30;16.30;99.90
5962;DHT22;3007;50.770;0.250;2022-10-16T10:52:13;16.30;99.90
5962;DHT22;3007;50.770;0.250;2022-10-16T10:54:49;16.30;99.90
5962;DHT22;3007;50.770;0.250;2022-10-16T10:57:29;16.30;99.90
5962;DHT22;3007;50.770;0.250;2022-10-16T11:00:10;16.30;99.90
5962;DHT22;3007;50.770;0.250;2022-10-16T11:02:45;16.40;99.90
5962;DHT22;3007;50.770;0.250;2022-10-16T11:05:27;16.40;99.90
5962;DHT22;3007;50.770;0.250;2022-10-16T11:08:00;16.50;99.90
5962;DHT22;3007;50.770;0.250;2022-10-16T11:10:33;16.60;99.90
5962;DHT22;3007;50.770;0.250;2022-10-16T11:13:15;16.70;99.90
5962;DHT22;3007;50.770;0.250;2022-10-16T11:15:45;16.80;99.90
5962;DHT22;3007;50.770;0.250;2022-10-16T11:18:18;16.90;99.90
5962;DHT22;3007;50.770;0.250;2022-10-16T11:20:50;16.90;99.90
5962;DHT22;3007;50.770;0.250;2022-10-16T11:23:24;17.00;99.90
5962;DHT22;3007;50.770;0.250;2022-10-16T11:25:54;17.00;99.90
5962;DHT22;3007;50.770;0.250;2022-10-16T11:28:27;17.00;99.90
5962;DHT22;3007;50.770;0.250;2022-10-16T11:31:00;17.00;99.90
5962;DHT22;3007;50.770;0.250;2022-10-16T11:33:34;17.10;99.90
5962;DHT22;3007;50.770;0.250;2022-10-16T11:36:08;17.20;99.90
5962;DHT22;3007;50.770;0.250;2022-10-16T11:38:43;17.20;99.90
5962;DHT22;3007;50.770;0.250;2022-10-16T11:41:20;17.30;99.90
5962;DHT22;3007;50.770;0.250;2022-10-16T11:43:56;17.30;99.90
5962;DHT22;3007;50.770;0.250;2022-10-16T11:46:26;17.40;99.90
5962;DHT22;3007;50.770;0.250;2022-10-16T11:48:57;17.40;99.90
5962;DHT22;3007;50.770;0.250;2022-10-16T11:51:33;17.50;99.90
5962;DHT22;3007;50.770;0.250;2022-10-16T11:54:20;17.50;99.90
5962;DHT22;3007;50.770;0.250;2022-10-16T11:56:53;17.50;99.90
5962;DHT22;3007;50.770;0.250;2022-10-16T11:59:29;17.50;99.90
5962;DHT22;3007;50.770;0.250;2022-10-16T12:02:16;17.60;99.90
5962;DHT22;3007;50.770;0.250;2022-10-16T12:04:53;17.60;99.90
5962;DHT22;3007;50.770;0.250;2022-10-16T12:07:27;17.60;99.90
5962;DHT22;3007;50.770;0.250;2022-10-16T12:10:10;17.60;99.90
5962;DHT22;3007;50.770;0.250;2022-10-16T12:12:39;17.70;99.90
5962;DHT22;3007;50.770;0.250;2022-10-16T12:15:21;17.70;99.90
5962;DHT22;3007;50.770;0.250;2022-10-16T12:17:48;17.70;99.90
5962;DHT22;3007;50.770;0.250;2022-10-16T12:20:24;17.70;99.90
5962;DHT22;3007;50.770;0.250;2022-10-16T12:22:53;17.70;99.90
5962;DHT22;3007;50.770;0.250;2022-10-16T12:25:25;17.70;99.90
5962;DHT22;3007;50.770;0.250;2022-10-16T12:27:55;17.70;99.90
5962;DHT22;3007;50.770;0.250;2022-10-16T12:30:25;17.70;99.90
5962;DHT22;3007;50.770;0.250;2022-10-16T12:32:56;17.70;99.90
5962;DHT22;3007;50.770;0.250;2022-10-16T12:35:27;17.70;99.90
5962;DHT22;3007;50.770;0.250;2022-10-16T12:37:54;17.70;99.90
5962;DHT22;3007;50.770;0.250;2022-10-16T12:40:34;17.70;99.90
5962;DHT22;3007;50.770;0.250;2022-10-16T12:43:12;17.70;99.90
5962;DHT22;3007;50.770;0.250;2022-10-16T12:45:39;17.70;99.90
5962;DHT22;3007;50.770;0.250;2022-10-16T12:48:19;17.60;99.90
5962;DHT22;3007;50.770;0.250;2022-10-16T12:50:47;17.60;99.90
5962;DHT22;3007;50.770;0.250;2022-10-16T12:53:21;17.60;99.90
5962;DHT22;3007;50.770;0.250;2022-10-16T12:56:01;17.60;99.90
5962;DHT22;3007;50.770;0.250;2022-10-16T12:58:52;17.60;99.90
5962;DHT22;3007;50.770;0.250;2022-10-16T13:01:37;17.60;99.90
5962;DHT22;3007;50.770;0.250;2022-10-16T13:04:50;17.50;99.90
5962;DHT22;3007;50.770;0.250;2022-10-16T13:10:21;17.50;99.90
5962;DHT22;3007;50.770;0.250;2022-10-16T13:13:15;17.40;99.90
5962;DHT22;3007;50.770;0.250;2022-10-16T13:15:56;17.40;99.90
5962;DHT22;3007;50.770;0.250;2022-10-16T13:18:29;17.40;99.90
5962;DHT22;3007;50.770;0.250;2022-10-16T13:21:09;17.30;99.90
5962;DHT22;3007;50.770;0.250;2022-10-16T13:23:43;17.30;99.90
5962;DHT22;3007;50.770;0.250;2022-10-16T13:26:23;17.30;99.90
5962;DHT22;3007;50.770;0.250;2022-10-16T13:28:59;17.30;99.90
5962;DHT22;3007;50.770;0.250;2022-10-16T13:31:30;17.20;99.90
5962;DHT22;3007;50.770;0.250;2022-10-16T13:33:58;17.20;99.90
5962;DHT22;3007;50.770;0.250;2022-10-16T13:36:28;17.20;99.90
5962;DHT22;3007;50.770;0.250;2022-10-16T13:39:01;17.10;99.90
5962;DHT22;3007;50.770;0.250;2022-10-16T13:41:36;17.00;99.90
5962;DHT22;3007;50.770;0.250;2022-10-16T13:44:07;17.00;99.90
5962;DHT22;3007;50.770;0.250;2022-10-16T13:46:38;17.00;99.90
5962;DHT22;3007;50.770;0.250;2022-10-16T13:49:12;16.90;99.90
5962;DHT22;3007;50.770;0.250;2022-10-16T13:51:39;16.90;99.90
5962;DHT22;3007;50.770;0.250;2022-10-16T13:54:09;16.90;99.90
5962;DHT22;3007;50.770;0.250;2022-10-16T13:56:39;16.90;99.90
5962;DHT22;3007;50.770;0.250;2022-10-16T13:59:34;16.90;99.90
5962;DHT22;3007;50.770;0.250;2022-10-16T14:02:14;16.80;99.90
5962;DHT22;3007;50.770;0.250;2022-10-16T14:04:45;16.80;99.90
5962;DHT22;3007;50.770;0.250;2022-10-16T14:07:14;16.80;99.90
5962;DHT22;3007;50.770;0.250;2022-10-16T14:09:48;16.80;99.90
5962;DHT22;3007;50.770;0.250;2022-10-16T14:12:16;16.80;99.90
5962;DHT22;3007;50.770;0.250;2022-10-16T14:14:46;16.70;99.90
5962;DHT22;3007;50.770;0.250;2022-10-16T14:17:14;16.70;99.90
5962;DHT22;3007;50.770;0.250;2022-10-16T14:19:46;16.70;99.90
5962;DHT22;3007;50.770;0.250;2022-10-16T14:22:25;16.70;99.90
5962;DHT22;3007;50.770;0.250;2022-10-16T14:24:53;16.60;99.90
5962;DHT22;3007;50.770;0.250;2022-10-16T14:27:30;16.60;99.90
5962;DHT22;3007;50.770;0.250;2022-10-16T14:30:15;16.60;99.90
5962;DHT22;3007;50.770;0.250;2022-10-16T14:32:53;16.60;99.90
5962;DHT22;3007;50.770;0.250;2022-10-16T14:35:26;16.60;99.90
5962;DHT22;3007;50.770;0.250;2022-10-16T14:37:54;16.50;99.90
5962;DHT22;3007;50.770;0.250;2022-10-16T14:40:24;16.50;99.90
5962;DHT22;3007;50.770;0.250;2022-10-16T14:42:52;16.50;99.90
5962;DHT22;3007;50.770;0.250;2022-10-16T14:45:22;16.50;99.90
5962;DHT22;3007;50.770;0.250;2022-10-16T14:47:53;16.50;99.90
5962;DHT22;3007;50.770;0.250;2022-10-16T14:50:21;16.50;99.90
5962;DHT22;3007;50.770;0.250;2022-10-16T14:52:48;16.40;99.90
5962;DHT22;3007;50.770;0.250;2022-10-16T14:55:15;16.50;99.90
5962;DHT22;3007;50.770;0.250;2022-10-16T14:57:43;16.40;99.90
5962;DHT22;3007;50.770;0.250;2022-10-16T15:00:16;16.50;99.90
5962;DHT22;3007;50.770;0.250;2022-10-16T15:02:45;16.40;99.90
5962;DHT22;3007;50.770;0.250;2022-10-16T15:05:16;16.40;99.90
5962;DHT22;3007;50.770;0.250;2022-10-16T15:07:44;16.40;99.90
5962;DHT22;3007;50.770;0.250;2022-10-16T15:10:12;16.40;99.90
5962;DHT22;3007;50.770;0.250;2022-10-16T15:12:39;16.40;99.90
5962;DHT22;3007;50.770;0.250;2022-10-16T15:15:23;16.40;99.90
5962;DHT22;3007;50.770;0.250;2022-10-16T15:17:54;16.40;99.90
5962;DHT22;3007;50.770;0.250;2022-10-16T15:20:23;16.40;99.90
5962;DHT22;3007;50.770;0.250;2022-10-16T15:22:50;16.40;99.90
5962;DHT22;3007;50.770;0.250;2022-10-16T15:25:29;16.40;99.90
5962;DHT22;3007;50.770;0.250;2022-10-16T15:27:56;16.40;99.90
5962;DHT22;3007;50.770;0.250;2022-10-16T15:30:23;16.50;99.90
5962;DHT22;3007;50.770;0.250;2022-10-16T15:32:50;16.40;99.90
5962;DHT22;3007;50.770;0.250;2022-10-16T15:35:19;16.40;99.90
5962;DHT22;3007;50.770;0.250;2022-10-16T15:37:46;16.40;99.90
5962;DHT22;3007;50.770;0.250;2022-10-16T15:40:14;16.40;99.90
5962;DHT22;3007;50.770;0.250;2022-10-16T15:42:41;16.30;99.90
5962;DHT22;3007;50.770;0.250;2022-10-16T15:45:09;16.30;99.90
5962;DHT22;3007;50.770;0.250;2022-10-16T15:47:36;16.30;99.90
5962;DHT22;3007;50.770;0.250;2022-10-16T15:50:04;16.30;99.90
5962;DHT22;3007;50.770;0.250;2022-10-16T15:52:32;16.30;99.90
5962;DHT22;3007;50.770;0.250;2022-10-16T15:54:59;16.30;99.90
5962;DHT22;3007;50.770;0.250;2022-10-16T15:57:28;16.30;99.90
5962;DHT22;3007;50.770;0.250;2022-10-16T15:59:55;16.30;99.90
5962;DHT22;3007;50.770;0.250;2022-10-16T16:02:21;16.30;99.90
5962;DHT22;3007;50.770;0.250;2022-10-16T16:04:48;16.30;99.90
5962;DHT22;3007;50.770;0.250;2022-10-16T16:07:15;16.30;99.90
5962;DHT22;3007;50.770;0.250;2022-10-16T16:09:44;16.20;99.90
5962;DHT22;3007;50.770;0.250;2022-10-16T16:12:11;16.30;99.90
5962;DHT22;3007;50.770;0.250;2022-10-16T16:14:38;16.20;99.90
5962;DHT22;3007;50.770;0.250;2022-10-16T16:17:09;16.20;99.90
5962;DHT22;3007;50.770;0.250;2022-10-16T16:19:38;16.20;99.90
5962;DHT22;3007;50.770;0.250;2022-10-16T16:22:04;16.20;99.90
5962;DHT22;3007;50.770;0.250;2022-10-16T16:24:31;16.20;99.90
5962;DHT22;3007;50.770;0.250;2022-10-16T16:27:00;16.20;99.90